sensor_id;sensor_type;location;lat;lon;timestamp;temperature;humidity
48744;DHT22;34538;48.836;9.174;2023-06-22T00:00:49;20.70;99.90
48744;DHT22;34538;48.836;9.174;2023-06-22T00:03:17;20.70;99.90
48744;DHT22;34538;48.836;9.174;2023-06-22T00:05:44;20.70;99.90
48744;DHT22;34538;48.836;9.174;2023-06-22T00:08:11;20.60;99.90
48744;DHT22;34538;48.836;9.174;2023-06-22T00:10:40;20.50;99.90
48744;DHT22;34538;48.836;9.174;2023-06-22T00:13:08;20.50;99.90
48744;DHT22;34538;48.836;9.174;2023-06-22T00:15:36;20.50;99.90
48744;DHT22;34538;48.836;9.174;2023-06-22T00:18:03;20.40;99.90
48744;DHT22;34538;48.836;9.174;2023-06-22T00:20:30;20.40;99.90
48744;DHT22;34538;48.836;9.174;2023-06-22T00:23:01;20.40;99.90
48744;DHT22;34538;48.836;9.174;2023-06-22T00:25:32;20.40;99.90
48744;DHT22;34538;48.836;9.174;2023-06-22T00:28:00;20.30;99.90
48744;DHT22;34538;48.836;9.174;2023-06-22T00:30:27;20.30;99.90
48744;DHT22;34538;48.836;9.174;2023-06-22T00:32:56;20.30;99.90
48744;DHT22;34538;48.836;9.174;2023-06-22T00:35:24;20.20;99.90
48744;DHT22;34538;48.836;9.174;2023-06-22T00:37:54;20.10;99.90
48744;DHT22;34538;48.836;9.174;2023-06-22T00:40:26;20.10;99.90
48744;DHT22;34538;48.836;9.174;2023-06-22T00:42:53;20.00;99.90
48744;DHT22;34538;48.836;9.174;2023-06-22T00:45:22;20.00;99.90
48744;DHT22;34538;48.836;9.174;2023-06-22T00:47:50;20.00;99.90
48744;DHT22;34538;48.836;9.174;2023-06-22T00:50:20;19.90;99.90
48744;DHT22;34538;48.836;9.174;2023-06-22T00:52:50;19.90;99.90
48744;DHT22;34538;48.836;9.174;2023-06-22T00:55:18;19.90;99.90
48744;DHT22;34538;48.836;9.174;2023-06-22T00:57:46;19.80;99.90
48744;DHT22;34538;48.836;9.174;2023-06-22T01:00:14;19.80;99.90
48744;DHT22;34538;48.836;9.174;2023-06-22T01:02:44;19.80;99.90
48744;DHT22;34538;48.836;9.174;2023-06-22T01:05:12;19.90;99.90
48744;DHT22;34538;48.836;9.174;2023-06-22T01:07:43;19.90;99.90
48744;DHT22;34538;48.836;9.174;2023-06-22T01:10:18;19.90;99.90
48744;DHT22;34538;48.836;9.174;2023-06-22T01:12:52;20.00;99.90
48744;DHT22;34538;48.836;9.174;2023-06-22T01:15:25;20.00;99.90
48744;DHT22;34538;48.836;9.174;2023-06-22T01:17:57;20.10;99.90
48744;DHT22;34538;48.836;9.174;2023-06-22T01:20:25;20.10;99.90
48744;DHT22;34538;48.836;9.174;2023-06-22T01:23:06;20.10;99.90
48744;DHT22;34538;48.836;9.174;2023-06-22T01:25:41;20.10;99.90
48744;DHT22;34538;48.836;9.174;2023-06-22T01:28:20;20.10;99.90
48744;DHT22;34538;48.836;9.174;2023-06-22T01:30:51;20.10;99.90
48744;DHT22;34538;48.836;9.174;2023-06-22T01:33:26;20.10;99.90
48744;DHT22;34538;48.836;9.174;2023-06-22T01:35:53;20.00;99.90
48744;DHT22;34538;48.836;9.174;2023-06-22T01:38:20;20.00;99.90
48744;DHT22;34538;48.836;9.174;2023-06-22T01:40:49;20.00;99.90
48744;DHT22;34538;48.836;9.174;2023-06-22T01:43:17;19.90;99.90
48744;DHT22;34538;48.836;9.174;2023-06-22T01:45:44;19.90;99.90
48744;DHT22;34538;48.836;9.174;2023-06-22T01:48:13;19.90;99.90
48744;DHT22;34538;48.836;9.174;2023-06-22T01:50:40;19.80;99.90
48744;DHT22;34538;48.836;9.174;2023-06-22T01:53:07;19.80;99.90
48744;DHT22;34538;48.836;9.174;2023-06-22T01:55:34;19.80;99.90
48744;DHT22;34538;48.836;9.174;2023-06-22T01:58:01;19.80;99.90
48744;DHT22;34538;48.836;9.174;2023-06-22T02:00:30;19.70;99.90
48744;DHT22;34538;48.836;9.174;2023-06-22T02:03:01;19.70;99.90
48744;DHT22;34538;48.836;9.174;2023-06-22T02:05:34;19.70;99.90
48744;DHT22;34538;48.836;9.174;2023-06-22T02:08:06;19.60;99.90
48744;DHT22;34538;48.836;9.174;2023-06-22T02:10:34;19.60;99.90
48744;DHT22;34538;48.836;9.174;2023-06-22T02:13:04;19.60;99.90
48744;DHT22;34538;48.836;9.174;2023-06-22T02:15:32;19.50;99.90
48744;DHT22;34538;48.836;9.174;2023-06-22T02:17:59;19.50;99.90
48744;DHT22;34538;48.836;9.174;2023-06-22T02:20:27;19.50;99.90
48744;DHT22;34538;48.836;9.174;2023-06-22T02:22:57;19.40;99.90
48744;DHT22;34538;48.836;9.174;2023-06-22T02:25:24;19.30;99.90
48744;DHT22;34538;48.836;9.174;2023-06-22T02:27:51;19.30;99.90
48744;DHT22;34538;48.836;9.174;2023-06-22T02:30:18;19.30;99.90
48744;DHT22;34538;48.836;9.174;2023-06-22T02:32:45;19.10;99.90
48744;DHT22;34538;48.836;9.174;2023-06-22T02:35:15;19.20;99.90
48744;DHT22;34538;48.836;9.174;2023-06-22T02:37:42;19.10;99.90
48744;DHT22;34538;48.836;9.174;2023-06-22T02:40:10;19.10;99.90
48744;DHT22;34538;48.836;9.174;2023-06-22T02:42:39;19.10;99.90
48744;DHT22;34538;48.836;9.174;2023-06-22T02:45:07;19.10;99.90
48744;DHT22;34538;48.836;9.174;2023-06-22T02:47:33;19.00;99.90
48744;DHT22;34538;48.836;9.174;2023-06-22T02:50:01;19.00;99.90
48744;DHT22;34538;48.836;9.174;2023-06-22T02:52:32;19.00;99.90
48744;DHT22;34538;48.836;9.174;2023-06-22T02:54:59;18.90;99.90
48744;DHT22;34538;48.836;9.174;2023-06-22T02:57:30;19.00;99.90
48744;DHT22;34538;48.836;9.174;2023-06-22T02:59:57;18.90;99.90
48744;DHT22;34538;48.836;9.174;2023-06-22T03:02:24;18.90;99.90
48744;DHT22;34538;48.836;9.174;2023-06-22T03:04:52;18.90;99.90
48744;DHT22;34538;48.836;9.174;2023-06-22T03:07:20;18.80;99.90
48744;DHT22;34538;48.836;9.174;2023-06-22T03:09:48;18.80;99.90
48744;DHT22;34538;48.836;9.174;2023-06-22T03:12:15;18.80;99.90
48744;DHT22;34538;48.836;9.174;2023-06-22T03:14:55;18.70;99.90
48744;DHT22;34538;48.836;9.174;2023-06-22T03:17:21;18.70;99.90
48744;DHT22;34538;48.836;9.174;2023-06-22T03:19:48;18.70;99.90
48744;DHT22;34538;48.836;9.174;2023-06-22T03:22:15;18.70;99.90
48744;DHT22;34538;48.836;9.174;2023-06-22T03:24:42;18.70;99.90
48744;DHT22;34538;48.836;9.174;2023-06-22T03:27:09;18.70;99.90
48744;DHT22;34538;48.836;9.174;2023-06-22T03:29:36;18.70;99.90
48744;DHT22;34538;48.836;9.174;2023-06-22T03:32:05;18.70;99.90
48744;DHT22;34538;48.836;9.174;2023-06-22T03:34:32;18.70;99.90
48744;DHT22;34538;48.836;9.174;2023-06-22T03:37:00;18.70;99.90
48744;DHT22;34538;48.836;9.174;2023-06-22T03:39:27;18.80;99.90
48744;DHT22;34538;48.836;9.174;2023-06-22T03:41:53;18.70;99.90
48744;DHT22;34538;48.836;9.174;2023-06-22T03:44:21;18.70;99.90
48744;DHT22;34538;48.836;9.174;2023-06-22T03:46:47;18.70;99.90
48744;DHT22;34538;48.836;9.174;2023-06-22T03:49:16;18.70;99.90
48744;DHT22;34538;48.836;9.174;2023-06-22T03:51:42;18.70;99.90
48744;DHT22;34538;48.836;9.174;2023-06-22T03:54:09;18.70;99.90
48744;DHT22;34538;48.836;9.174;2023-06-22T03:56:37;18.60;99.90
48744;DHT22;34538;48.836;9.174;2023-06-22T03:59:05;18.70;99.90
48744;DHT22;34538;48.836;9.174;2023-06-22T04:01:32;18.70;99.90
48744;DHT22;34538;48.836;9.174;2023-06-22T04:03:59;18.70;99.90
48744;DHT22;34538;48.836;9.174;2023-06-22T04:06:27;18.70;99.90
48744;DHT22;34538;48.836;9.174;2023-06-22T04:08:54;18.70;99.90
48744;DHT22;34538;48.836;9.174;2023-06-22T04:11:21;18.80;99.90
48744;DHT22;34538;48.836;9.174;2023-06-22T04:13:47;18.90;99.90
48744;DHT22;34538;48.836;9.174;2023-06-22T04:16:16;18.90;99.90
48744;DHT22;34538;48.836;9.174;2023-06-22T04:18:43;19.00;99.90
48744;DHT22;34538;48.836;9.174;2023-06-22T04:21:10;19.10;99.90
48744;DHT22;34538;48.836;9.174;2023-06-22T04:23:39;19.10;99.90
48744;DHT22;34538;48.836;9.174;2023-06-22T04:26:05;19.20;99.90
48744;DHT22;34538;48.836;9.174;2023-06-22T04:28:32;19.30;99.90
48744;DHT22;34538;48.836;9.174;2023-06-22T04:31:00;19.30;99.90
48744;DHT22;34538;48.836;9.174;2023-06-22T04:33:28;19.40;99.90
48744;DHT22;34538;48.836;9.174;2023-06-22T04:35:55;19.40;99.90
48744;DHT22;34538;48.836;9.174;2023-06-22T04:38:23;19.50;99.90
48744;DHT22;34538;48.836;9.174;2023-06-22T04:40:51;19.50;99.90
48744;DHT22;34538;48.836;9.174;2023-06-22T04:43:18;19.60;99.90
48744;DHT22;34538;48.836;9.174;2023-06-22T04:45:45;19.70;99.90
48744;DHT22;34538;48.836;9.174;2023-06-22T04:48:18;19.80;99.90
48744;DHT22;34538;48.836;9.174;2023-06-22T04:50:44;19.80;99.90
48744;DHT22;34538;48.836;9.174;2023-06-22T04:53:12;19.90;99.90
48744;DHT22;34538;48.836;9.174;2023-06-22T04:55:39;20.10;99.90
48744;DHT22;34538;48.836;9.174;2023-06-22T04:58:12;20.20;99.90
48744;DHT22;34538;48.836;9.174;2023-06-22T05:00:39;20.40;99.90
48744;DHT22;34538;48.836;9.174;2023-06-22T05:03:06;20.50;99.90
48744;DHT22;34538;48.836;9.174;2023-06-22T05:05:36;20.70;99.90
48744;DHT22;34538;48.836;9.174;2023-06-22T05:08:03;20.70;99.90
48744;DHT22;34538;48.836;9.174;2023-06-22T05:10:32;20.90;99.90
48744;DHT22;34538;48.836;9.174;2023-06-22T05:12:59;21.00;99.90
48744;DHT22;34538;48.836;9.174;2023-06-22T05:15:27;21.10;99.90
48744;DHT22;34538;48.836;9.174;2023-06-22T05:17:56;21.30;99.90
48744;DHT22;34538;48.836;9.174;2023-06-22T05:20:23;21.40;99.90
48744;DHT22;34538;48.836;9.174;2023-06-22T05:22:50;21.60;99.90
48744;DHT22;34538;48.836;9.174;2023-06-22T05:25:17;21.70;99.90
48744;DHT22;34538;48.836;9.174;2023-06-22T05:27:44;21.80;99.90
48744;DHT22;34538;48.836;9.174;2023-06-22T05:30:11;22.00;99.90
48744;DHT22;34538;48.836;9.174;2023-06-22T05:32:40;22.10;99.90
48744;DHT22;34538;48.836;9.174;2023-06-22T05:35:07;22.10;99.90
48744;DHT22;34538;48.836;9.174;2023-06-22T05:37:34;22.20;99.90
48744;DHT22;34538;48.836;9.174;2023-06-22T05:40:01;22.30;99.90
48744;DHT22;34538;48.836;9.174;2023-06-22T05:42:28;22.40;99.90
48744;DHT22;34538;48.836;9.174;2023-06-22T05:44:55;22.50;99.90
48744;DHT22;34538;48.836;9.174;2023-06-22T05:47:24;22.60;99.90
48744;DHT22;34538;48.836;9.174;2023-06-22T05:49:52;22.60;99.90
48744;DHT22;34538;48.836;9.174;2023-06-22T05:52:19;22.70;99.90
48744;DHT22;34538;48.836;9.174;2023-06-22T05:54:46;22.80;99.90
48744;DHT22;34538;48.836;9.174;2023-06-22T05:57:13;22.90;99.90
48744;DHT22;34538;48.836;9.174;2023-06-22T05:59:40;22.90;99.90
48744;DHT22;34538;48.836;9.174;2023-06-22T06:02:06;22.90;99.90
48744;DHT22;34538;48.836;9.174;2023-06-22T06:04:33;22.80;99.90
48744;DHT22;34538;48.836;9.174;2023-06-22T06:07:02;22.70;99.90
48744;DHT22;34538;48.836;9.174;2023-06-22T06:09:29;22.60;99.90
48744;DHT22;34538;48.836;9.174;2023-06-22T06:11:56;22.60;99.90
48744;DHT22;34538;48.836;9.174;2023-06-22T06:14:23;22.50;99.90
48744;DHT22;34538;48.836;9.174;2023-06-22T06:16:50;22.50;99.90
48744;DHT22;34538;48.836;9.174;2023-06-22T06:19:17;22.50;99.90
48744;DHT22;34538;48.836;9.174;2023-06-22T06:21:43;22.50;99.90
48744;DHT22;34538;48.836;9.174;2023-06-22T06:24:13;22.60;99.90
48744;DHT22;34538;48.836;9.174;2023-06-22T06:26:40;22.70;99.90
48744;DHT22;34538;48.836;9.174;2023-06-22T06:29:06;22.80;99.90
48744;DHT22;34538;48.836;9.174;2023-06-22T06:31:33;23.00;99.90
48744;DHT22;34538;48.836;9.174;2023-06-22T06:34:00;23.20;99.90
48744;DHT22;34538;48.836;9.174;2023-06-22T06:36:27;23.30;99.90
48744;DHT22;34538;48.836;9.174;2023-06-22T06:38:54;23.40;99.90
48744;DHT22;34538;48.836;9.174;2023-06-22T06:41:22;23.50;99.90
48744;DHT22;34538;48.836;9.174;2023-06-22T06:43:49;23.50;99.90
48744;DHT22;34538;48.836;9.174;2023-06-22T06:46:17;23.60;99.90
48744;DHT22;34538;48.836;9.174;2023-06-22T06:48:44;23.60;99.90
48744;DHT22;34538;48.836;9.174;2023-06-22T06:51:11;23.60;99.90
48744;DHT22;34538;48.836;9.174;2023-06-22T06:53:38;23.70;99.90
48744;DHT22;34538;48.836;9.174;2023-06-22T06:56:05;23.80;99.90
48744;DHT22;34538;48.836;9.174;2023-06-22T06:58:33;23.90;99.90
48744;DHT22;34538;48.836;9.174;2023-06-22T07:01:00;24.00;99.90
48744;DHT22;34538;48.836;9.174;2023-06-22T07:03:28;24.20;99.90
48744;DHT22;34538;48.836;9.174;2023-06-22T07:05:55;24.20;99.90
48744;DHT22;34538;48.836;9.174;2023-06-22T07:08:21;24.20;99.90
48744;DHT22;34538;48.836;9.174;2023-06-22T07:10:48;24.10;99.90
48744;DHT22;34538;48.836;9.174;2023-06-22T07:13:15;24.10;99.90
48744;DHT22;34538;48.836;9.174;2023-06-22T07:15:43;24.10;99.90
48744;DHT22;34538;48.836;9.174;2023-06-22T07:18:10;24.20;99.90
48744;DHT22;34538;48.836;9.174;2023-06-22T07:20:37;24.30;99.90
48744;DHT22;34538;48.836;9.174;2023-06-22T07:23:06;24.30;99.90
48744;DHT22;34538;48.836;9.174;2023-06-22T07:25:33;24.40;99.90
48744;DHT22;34538;48.836;9.174;2023-06-22T07:28:01;24.40;99.90
48744;DHT22;34538;48.836;9.174;2023-06-22T07:30:29;24.40;99.90
48744;DHT22;34538;48.836;9.174;2023-06-22T07:32:57;24.40;99.90
48744;DHT22;34538;48.836;9.174;2023-06-22T07:35:29;24.50;99.90
48744;DHT22;34538;48.836;9.174;2023-06-22T07:37:56;24.60;99.90
48744;DHT22;34538;48.836;9.174;2023-06-22T07:40:22;24.70;99.90
48744;DHT22;34538;48.836;9.174;2023-06-22T07:42:49;24.90;99.90
48744;DHT22;34538;48.836;9.174;2023-06-22T07:45:17;25.00;99.90
48744;DHT22;34538;48.836;9.174;2023-06-22T07:47:44;25.10;99.90
48744;DHT22;34538;48.836;9.174;2023-06-22T07:50:12;25.10;99.90
48744;DHT22;34538;48.836;9.174;2023-06-22T07:52:40;25.20;99.90
48744;DHT22;34538;48.836;9.174;2023-06-22T07:55:08;25.20;99.90
48744;DHT22;34538;48.836;9.174;2023-06-22T07:57:35;25.20;99.90
48744;DHT22;34538;48.836;9.174;2023-06-22T08:00:03;25.20;99.90
48744;DHT22;34538;48.836;9.174;2023-06-22T08:02:38;25.30;99.90
48744;DHT22;34538;48.836;9.174;2023-06-22T08:05:06;25.40;99.90
48744;DHT22;34538;48.836;9.174;2023-06-22T08:07:35;25.50;99.90
48744;DHT22;34538;48.836;9.174;2023-06-22T08:10:03;25.60;99.90
48744;DHT22;34538;48.836;9.174;2023-06-22T08:12:31;25.70;99.90
48744;DHT22;34538;48.836;9.174;2023-06-22T08:14:58;25.80;99.90
48744;DHT22;34538;48.836;9.174;2023-06-22T08:17:25;25.80;99.90
48744;DHT22;34538;48.836;9.174;2023-06-22T08:19:52;25.90;99.90
48744;DHT22;34538;48.836;9.174;2023-06-22T08:22:18;26.00;99.90
48744;DHT22;34538;48.836;9.174;2023-06-22T08:24:47;26.20;99.90
48744;DHT22;34538;48.836;9.174;2023-06-22T08:27:14;26.20;99.90
48744;DHT22;34538;48.836;9.174;2023-06-22T08:29:42;26.40;99.90
48744;DHT22;34538;48.836;9.174;2023-06-22T08:32:11;26.40;99.90
48744;DHT22;34538;48.836;9.174;2023-06-22T08:34:38;26.40;99.90
48744;DHT22;34538;48.836;9.174;2023-06-22T08:37:07;26.50;99.90
48744;DHT22;34538;48.836;9.174;2023-06-22T08:39:34;26.50;99.90
48744;DHT22;34538;48.836;9.174;2023-06-22T08:42:03;26.60;99.90
48744;DHT22;34538;48.836;9.174;2023-06-22T08:44:30;26.60;99.90
48744;DHT22;34538;48.836;9.174;2023-06-22T08:46:57;26.70;99.90
48744;DHT22;34538;48.836;9.174;2023-06-22T08:49:24;26.80;99.90
48744;DHT22;34538;48.836;9.174;2023-06-22T08:51:51;26.80;99.90
48744;DHT22;34538;48.836;9.174;2023-06-22T08:54:19;26.80;99.90
48744;DHT22;34538;48.836;9.174;2023-06-22T08:56:46;26.90;99.90
48744;DHT22;34538;48.836;9.174;2023-06-22T08:59:14;27.10;99.90
48744;DHT22;34538;48.836;9.174;2023-06-22T09:01:41;27.30;99.90
48744;DHT22;34538;48.836;9.174;2023-06-22T09:04:14;27.50;99.90
48744;DHT22;34538;48.836;9.174;2023-06-22T09:06:41;27.70;99.90
48744;DHT22;34538;48.836;9.174;2023-06-22T09:09:10;27.80;99.90
48744;DHT22;34538;48.836;9.174;2023-06-22T09:11:37;28.00;99.90
48744;DHT22;34538;48.836;9.174;2023-06-22T09:14:04;28.20;99.90
48744;DHT22;34538;48.836;9.174;2023-06-22T09:16:32;28.40;99.90
48744;DHT22;34538;48.836;9.174;2023-06-22T09:18:59;28.50;99.90
48744;DHT22;34538;48.836;9.174;2023-06-22T09:21:26;28.60;99.90
48744;DHT22;34538;48.836;9.174;2023-06-22T09:23:53;28.50;99.90
48744;DHT22;34538;48.836;9.174;2023-06-22T09:26:20;28.50;99.90
48744;DHT22;34538;48.836;9.174;2023-06-22T09:28:48;28.50;99.90
48744;DHT22;34538;48.836;9.174;2023-06-22T09:31:15;28.50;99.90
48744;DHT22;34538;48.836;9.174;2023-06-22T09:33:44;28.60;99.90
48744;DHT22;34538;48.836;9.174;2023-06-22T09:36:11;28.60;99.90
48744;DHT22;34538;48.836;9.174;2023-06-22T09:38:38;28.70;99.90
48744;DHT22;34538;48.836;9.174;2023-06-22T09:41:05;28.70;99.90
48744;DHT22;34538;48.836;9.174;2023-06-22T09:43:32;28.70;99.90
48744;DHT22;34538;48.836;9.174;2023-06-22T09:46:01;28.80;99.90
48744;DHT22;34538;48.836;9.174;2023-06-22T09:48:28;28.90;99.90
48744;DHT22;34538;48.836;9.174;2023-06-22T09:50:57;29.00;99.90
48744;DHT22;34538;48.836;9.174;2023-06-22T09:53:23;29.10;99.90
48744;DHT22;34538;48.836;9.174;2023-06-22T09:55:50;29.20;99.90
48744;DHT22;34538;48.836;9.174;2023-06-22T09:58:17;29.20;99.90
48744;DHT22;34538;48.836;9.174;2023-06-22T10:00:44;29.20;99.90
48744;DHT22;34538;48.836;9.174;2023-06-22T10:03:11;29.20;99.90
48744;DHT22;34538;48.836;9.174;2023-06-22T10:05:38;29.20;99.90
48744;DHT22;34538;48.836;9.174;2023-06-22T10:08:06;29.40;99.90
48744;DHT22;34538;48.836;9.174;2023-06-22T10:10:35;29.40;99.90
48744;DHT22;34538;48.836;9.174;2023-06-22T10:13:07;29.50;99.90
48744;DHT22;34538;48.836;9.174;2023-06-22T10:15:35;29.60;99.90
48744;DHT22;34538;48.836;9.174;2023-06-22T10:18:03;29.60;99.90
48744;DHT22;34538;48.836;9.174;2023-06-22T10:20:30;29.70;99.90
48744;DHT22;34538;48.836;9.174;2023-06-22T10:22:57;29.70;99.90
48744;DHT22;34538;48.836;9.174;2023-06-22T10:25:26;29.70;99.90
48744;DHT22;34538;48.836;9.174;2023-06-22T10:27:53;29.70;99.90
48744;DHT22;34538;48.836;9.174;2023-06-22T10:30:20;29.80;99.90
48744;DHT22;34538;48.836;9.174;2023-06-22T10:32:47;29.90;99.90
48744;DHT22;34538;48.836;9.174;2023-06-22T10:35:14;29.90;99.50
48744;DHT22;34538;48.836;9.174;2023-06-22T10:37:42;30.00;99.80
48744;DHT22;34538;48.836;9.174;2023-06-22T10:40:11;30.10;99.50
48744;DHT22;34538;48.836;9.174;2023-06-22T10:42:39;30.20;99.60
48744;DHT22;34538;48.836;9.174;2023-06-22T10:45:07;30.30;99.20
48744;DHT22;34538;48.836;9.174;2023-06-22T10:47:35;30.40;99.20
48744;DHT22;34538;48.836;9.174;2023-06-22T10:50:02;30.50;99.00
48744;DHT22;34538;48.836;9.174;2023-06-22T10:52:29;30.60;99.50
48744;DHT22;34538;48.836;9.174;2023-06-22T10:54:56;30.60;98.50
48744;DHT22;34538;48.836;9.174;2023-06-22T10:57:23;30.60;99.00
48744;DHT22;34538;48.836;9.174;2023-06-22T10:59:51;30.70;98.50
48744;DHT22;34538;48.836;9.174;2023-06-22T11:02:18;30.70;98.10
48744;DHT22;34538;48.836;9.174;2023-06-22T11:04:45;30.70;98.70
48744;DHT22;34538;48.836;9.174;2023-06-22T11:07:13;30.70;98.50
48744;DHT22;34538;48.836;9.174;2023-06-22T11:09:40;30.70;98.10
48744;DHT22;34538;48.836;9.174;2023-06-22T11:12:07;30.60;98.10
48744;DHT22;34538;48.836;9.174;2023-06-22T11:14:34;30.60;98.20
48744;DHT22;34538;48.836;9.174;2023-06-22T11:17:02;30.60;98.60
48744;DHT22;34538;48.836;9.174;2023-06-22T11:19:29;30.60;98.30
48744;DHT22;34538;48.836;9.174;2023-06-22T11:21:56;30.60;98.50
48744;DHT22;34538;48.836;9.174;2023-06-22T11:24:23;30.70;97.80
48744;DHT22;34538;48.836;9.174;2023-06-22T11:26:50;30.70;98.20
48744;DHT22;34538;48.836;9.174;2023-06-22T11:29:16;30.70;97.40
48744;DHT22;34538;48.836;9.174;2023-06-22T11:31:43;30.70;97.90
48744;DHT22;34538;48.836;9.174;2023-06-22T11:34:11;30.70;98.30
48744;DHT22;34538;48.836;9.174;2023-06-22T11:36:39;30.60;98.30
48744;DHT22;34538;48.836;9.174;2023-06-22T11:39:08;30.60;98.10
48744;DHT22;34538;48.836;9.174;2023-06-22T11:41:36;30.60;98.20
48744;DHT22;34538;48.836;9.174;2023-06-22T11:44:03;30.60;98.40
48744;DHT22;34538;48.836;9.174;2023-06-22T11:46:31;30.60;97.90
48744;DHT22;34538;48.836;9.174;2023-06-22T11:48:58;30.70;98.40
48744;DHT22;34538;48.836;9.174;2023-06-22T11:51:26;30.80;98.10
48744;DHT22;34538;48.836;9.174;2023-06-22T11:53:53;30.90;97.60
48744;DHT22;34538;48.836;9.174;2023-06-22T11:56:20;30.90;97.30
48744;DHT22;34538;48.836;9.174;2023-06-22T11:58:47;30.90;97.70
48744;DHT22;34538;48.836;9.174;2023-06-22T12:01:14;30.90;97.80
48744;DHT22;34538;48.836;9.174;2023-06-22T12:03:41;30.90;98.00
48744;DHT22;34538;48.836;9.174;2023-06-22T12:06:08;30.90;97.60
48744;DHT22;34538;48.836;9.174;2023-06-22T12:08:37;30.90;97.50
48744;DHT22;34538;48.836;9.174;2023-06-22T12:11:04;30.90;97.10
48744;DHT22;34538;48.836;9.174;2023-06-22T12:13:31;30.80;97.40
48744;DHT22;34538;48.836;9.174;2023-06-22T12:15:58;30.80;97.40
48744;DHT22;34538;48.836;9.174;2023-06-22T12:18:24;30.70;97.60
48744;DHT22;34538;48.836;9.174;2023-06-22T12:20:51;30.70;97.80
48744;DHT22;34538;48.836;9.174;2023-06-22T12:23:18;30.70;98.40
48744;DHT22;34538;48.836;9.174;2023-06-22T12:25:46;30.70;98.10
48744;DHT22;34538;48.836;9.174;2023-06-22T12:28:13;30.80;98.20
48744;DHT22;34538;48.836;9.174;2023-06-22T12:30:40;30.80;98.40
48744;DHT22;34538;48.836;9.174;2023-06-22T12:33:07;30.80;96.90
48744;DHT22;34538;48.836;9.174;2023-06-22T12:35:34;30.90;96.80
48744;DHT22;34538;48.836;9.174;2023-06-22T12:38:01;30.90;98.00
48744;DHT22;34538;48.836;9.174;2023-06-22T12:40:28;31.00;97.30
48744;DHT22;34538;48.836;9.174;2023-06-22T12:42:56;31.00;97.10
48744;DHT22;34538;48.836;9.174;2023-06-22T12:45:23;31.10;97.20
48744;DHT22;34538;48.836;9.174;2023-06-22T12:47:54;31.10;97.50
48744;DHT22;34538;48.836;9.174;2023-06-22T12:50:21;31.10;97.60
48744;DHT22;34538;48.836;9.174;2023-06-22T12:52:48;31.10;96.40
48744;DHT22;34538;48.836;9.174;2023-06-22T12:55:14;31.10;97.50
48744;DHT22;34538;48.836;9.174;2023-06-22T12:57:41;31.20;97.20
48744;DHT22;34538;48.836;9.174;2023-06-22T13:00:11;31.10;96.50
48744;DHT22;34538;48.836;9.174;2023-06-22T13:02:38;31.10;96.50
48744;DHT22;34538;48.836;9.174;2023-06-22T13:05:05;31.10;97.20
48744;DHT22;34538;48.836;9.174;2023-06-22T13:07:32;31.00;96.90
48744;DHT22;34538;48.836;9.174;2023-06-22T13:09:59;30.90;97.20
48744;DHT22;34538;48.836;9.174;2023-06-22T13:12:26;30.90;97.10
48744;DHT22;34538;48.836;9.174;2023-06-22T13:14:53;30.80;97.00
48744;DHT22;34538;48.836;9.174;2023-06-22T13:17:21;30.80;97.40
48744;DHT22;34538;48.836;9.174;2023-06-22T13:19:48;30.70;97.20
48744;DHT22;34538;48.836;9.174;2023-06-22T13:22:29;30.70;97.50
48744;DHT22;34538;48.836;9.174;2023-06-22T13:24:56;30.70;98.30
48744;DHT22;34538;48.836;9.174;2023-06-22T13:27:24;30.70;97.90
48744;DHT22;34538;48.836;9.174;2023-06-22T13:29:51;30.70;98.10
48744;DHT22;34538;48.836;9.174;2023-06-22T13:32:18;30.80;98.10
48744;DHT22;34538;48.836;9.174;2023-06-22T13:34:46;30.90;97.90
48744;DHT22;34538;48.836;9.174;2023-06-22T13:37:13;31.00;98.00
48744;DHT22;34538;48.836;9.174;2023-06-22T13:39:40;31.10;98.70
48744;DHT22;34538;48.836;9.174;2023-06-22T13:42:07;31.10;98.40
48744;DHT22;34538;48.836;9.174;2023-06-22T13:44:34;31.30;97.10
48744;DHT22;34538;48.836;9.174;2023-06-22T13:47:01;31.30;97.30
48744;DHT22;34538;48.836;9.174;2023-06-22T13:49:28;31.40;97.10
48744;DHT22;34538;48.836;9.174;2023-06-22T13:51:56;31.50;98.30
48744;DHT22;34538;48.836;9.174;2023-06-22T13:54:23;31.60;97.40
48744;DHT22;34538;48.836;9.174;2023-06-22T13:56:50;31.60;97.70
48744;DHT22;34538;48.836;9.174;2023-06-22T13:59:18;31.70;97.50
48744;DHT22;34538;48.836;9.174;2023-06-22T14:01:46;31.70;98.00
48744;DHT22;34538;48.836;9.174;2023-06-22T14:04:13;31.70;97.40
48744;DHT22;34538;48.836;9.174;2023-06-22T14:06:39;31.70;96.60
48744;DHT22;34538;48.836;9.174;2023-06-22T14:09:07;31.70;97.70
48744;DHT22;34538;48.836;9.174;2023-06-22T14:11:34;31.70;96.60
48744;DHT22;34538;48.836;9.174;2023-06-22T14:14:01;31.70;96.90
48744;DHT22;34538;48.836;9.174;2023-06-22T14:16:28;31.70;96.60
48744;DHT22;34538;48.836;9.174;2023-06-22T14:18:55;31.60;97.20
48744;DHT22;34538;48.836;9.174;2023-06-22T14:21:22;31.60;95.90
48744;DHT22;34538;48.836;9.174;2023-06-22T14:23:49;31.70;95.50
48744;DHT22;34538;48.836;9.174;2023-06-22T14:26:17;31.80;96.80
48744;DHT22;34538;48.836;9.174;2023-06-22T14:28:45;32.00;95.70
48744;DHT22;34538;48.836;9.174;2023-06-22T14:31:14;32.20;96.30
48744;DHT22;34538;48.836;9.174;2023-06-22T14:33:43;32.30;95.10
48744;DHT22;34538;48.836;9.174;2023-06-22T14:36:10;32.30;94.90
48744;DHT22;34538;48.836;9.174;2023-06-22T14:38:37;32.30;95.20
48744;DHT22;34538;48.836;9.174;2023-06-22T14:41:04;32.30;95.20
48744;DHT22;34538;48.836;9.174;2023-06-22T14:43:32;32.40;95.50
48744;DHT22;34538;48.836;9.174;2023-06-22T14:46:00;32.40;95.10
48744;DHT22;34538;48.836;9.174;2023-06-22T14:48:27;32.40;95.00
48744;DHT22;34538;48.836;9.174;2023-06-22T14:50:53;32.60;94.90
48744;DHT22;34538;48.836;9.174;2023-06-22T14:53:20;32.70;94.70
48744;DHT22;34538;48.836;9.174;2023-06-22T14:55:47;32.90;93.60
48744;DHT22;34538;48.836;9.174;2023-06-22T14:58:14;33.00;93.60
48744;DHT22;34538;48.836;9.174;2023-06-22T15:00:42;33.10;93.70
48744;DHT22;34538;48.836;9.174;2023-06-22T15:03:09;33.20;91.70
48744;DHT22;34538;48.836;9.174;2023-06-22T15:05:42;33.20;90.90
48744;DHT22;34538;48.836;9.174;2023-06-22T15:08:09;33.30;85.80
48744;DHT22;34538;48.836;9.174;2023-06-22T15:10:37;33.30;81.00
48744;DHT22;34538;48.836;9.174;2023-06-22T15:13:03;33.30;79.50
48744;DHT22;34538;48.836;9.174;2023-06-22T15:15:30;33.30;79.90
48744;DHT22;34538;48.836;9.174;2023-06-22T15:17:58;33.40;79.20
48744;DHT22;34538;48.836;9.174;2023-06-22T15:20:25;33.40;79.30
48744;DHT22;34538;48.836;9.174;2023-06-22T15:22:52;33.50;78.90
48744;DHT22;34538;48.836;9.174;2023-06-22T15:25:20;33.60;77.10
48744;DHT22;34538;48.836;9.174;2023-06-22T15:27:47;33.70;76.70
48744;DHT22;34538;48.836;9.174;2023-06-22T15:30:14;33.90;78.20
48744;DHT22;34538;48.836;9.174;2023-06-22T15:32:42;34.00;75.60